WMT482 LUKK-EKCH
Flight info
| Callsign | WMT482 |
|---|---|
| Flight time | N/A |
| Altitude | 36000 |
| Route | NUNTA DCT BUZZE DCT SOMET DCT SAT DCT KENIN DCT DUFES DCT LENOV DCT ROGAL DCT ARKUG DCT AMROR DCT ROE M743 TIDVU |
| Aircraft | A321/M-SDE3FGHIRWY/LB1 |
Departure
| Time | 2026-05-04 17:29 |
|---|---|
| Airport | Chişinău International Airport (LUKK) |
Arrival
| Time | N/A |
|---|---|
| Airport | Copenhagen Kastrup Airport (EKCH) |
| Time | Latitude | Longitude | Altitude | Speed | Heading |
|---|---|---|---|---|---|
| 2026-05-04 16:27 | 46.93422 | 28.93057 | 328 ft | 0 kts | 186° |
| 2026-05-04 17:13 | 46.93464 | 28.93059 | 329 ft | 3 kts | 179° |
| 2026-05-04 17:14 | 46.93469 | 28.93059 | 329 ft | 0 kts | 179° |
| 2026-05-04 17:18 | 46.93467 | 28.93059 | 329 ft | 1 kts | 181° |
| 2026-05-04 17:18 | 46.93459 | 28.92987 | 328 ft | 8 kts | 281° |
| 2026-05-04 17:19 | 46.93471 | 28.92780 | 322 ft | 11 kts | 224° |
| 2026-05-04 17:19 | 46.93297 | 28.92736 | 318 ft | 12 kts | 186° |
| 2026-05-04 17:20 | 46.93260 | 28.92729 | 317 ft | 0 kts | 187° |
| 2026-05-04 17:20 | 46.93233 | 28.92712 | 315 ft | 7 kts | 215° |
| 2026-05-04 17:20 | 46.93214 | 28.92624 | 311 ft | 13 kts | 283° |
| 2026-05-04 17:21 | 46.93250 | 28.92265 | 298 ft | 22 kts | 277° |
| 2026-05-04 17:21 | 46.93156 | 28.92006 | 297 ft | 13 kts | 192° |
| 2026-05-04 17:22 | 46.93099 | 28.91990 | 308 ft | 3 kts | 187° |
| 2026-05-04 17:22 | 46.93080 | 28.91989 | 311 ft | 0 kts | 182° |
| 2026-05-04 17:23 | 46.92932 | 28.91994 | 359 ft | 1 kts | 180° |
| 2026-05-04 17:23 | 46.92877 | 28.91997 | 367 ft | 11 kts | 178° |
| 2026-05-04 17:23 | 46.92828 | 28.91999 | 374 ft | 0 kts | 178° |
| 2026-05-04 17:24 | 46.92756 | 28.91858 | 378 ft | 15 kts | 268° |
| 2026-05-04 17:25 | 46.92747 | 28.91674 | 382 ft | 21 kts | 268° |
| 2026-05-04 17:25 | 46.92737 | 28.91146 | 392 ft | 30 kts | 269° |
| 2026-05-04 17:26 | 46.92768 | 28.90793 | 405 ft | 0 kts | 271° |
| 2026-05-04 17:26 | 46.92752 | 28.90751 | 405 ft | 6 kts | 199° |
| 2026-05-04 17:27 | 46.92737 | 28.90973 | 402 ft | 15 kts | 86° |
| 2026-05-04 17:27 | 46.92745 | 28.91477 | 388 ft | 62 kts | 87° |
| 2026-05-04 17:28 | 46.92807 | 28.93998 | 363 ft | 172 kts | 89° |
| 2026-05-04 17:29 | 46.92910 | 28.99511 | 1621 ft | 207 kts | 85° |
| 2026-05-04 17:29 | 46.92847 | 29.07053 | 2807 ft | 241 kts | 70° |
| 2026-05-04 17:30 | 46.96442 | 29.06549 | 3567 ft | 285 kts | 287° |
| 2026-05-04 17:31 | 46.96871 | 29.00869 | 5318 ft | 272 kts | 282° |
| 2026-05-04 17:31 | 46.98023 | 28.92702 | 7488 ft | 275 kts | 284° |
| 2026-05-04 17:32 | 46.98752 | 28.87155 | 8800 ft | 280 kts | 283° |
| 2026-05-04 17:33 | 46.99808 | 28.78507 | 10155 ft | 309 kts | 282° |
| 2026-05-04 17:33 | 47.00184 | 28.75345 | 10288 ft | 329 kts | 282° |
| 2026-05-04 17:34 | 47.01420 | 28.64951 | 11676 ft | 349 kts | 284° |
| 2026-05-04 17:34 | 47.02143 | 28.61598 | 12265 ft | 351 kts | 289° |
| 2026-05-04 17:35 | 47.04546 | 28.51349 | 13973 ft | 359 kts | 288° |
| 2026-05-04 17:35 | 47.06176 | 28.44369 | 15036 ft | 365 kts | 287° |
| 2026-05-04 17:35 | 47.07001 | 28.40831 | 15537 ft | 369 kts | 287° |
| 2026-05-04 17:36 | 47.07842 | 28.37225 | 16042 ft | 373 kts | 286° |
| 2026-05-04 17:36 | 47.08678 | 28.33635 | 16506 ft | 377 kts | 286° |
| 2026-05-04 17:36 | 47.09528 | 28.29969 | 16948 ft | 382 kts | 285° |
| 2026-05-04 17:36 | 47.10386 | 28.26255 | 17387 ft | 386 kts | 285° |
| 2026-05-04 17:37 | 47.11251 | 28.22506 | 17815 ft | 391 kts | 285° |
| 2026-05-04 17:37 | 47.12129 | 28.18698 | 18210 ft | 396 kts | 285° |
| 2026-05-04 17:37 | 47.13017 | 28.14843 | 18569 ft | 402 kts | 285° |
| 2026-05-04 17:37 | 47.13920 | 28.10920 | 18938 ft | 408 kts | 284° |
| 2026-05-04 17:38 | 47.14832 | 28.06952 | 19318 ft | 413 kts | 284° |
| 2026-05-04 17:38 | 47.15756 | 28.02931 | 19695 ft | 418 kts | 284° |
| 2026-05-04 17:38 | 47.16688 | 27.98863 | 20055 ft | 423 kts | 285° |
| 2026-05-04 17:38 | 47.17632 | 27.94732 | 20371 ft | 429 kts | 285° |
| 2026-05-04 17:39 | 47.19541 | 27.86334 | 21053 ft | 438 kts | 285° |
| 2026-05-04 17:39 | 47.20510 | 27.82065 | 21381 ft | 442 kts | 285° |
| 2026-05-04 17:39 | 47.21484 | 27.77756 | 21673 ft | 447 kts | 285° |
| 2026-05-04 17:40 | 47.22468 | 27.73390 | 21982 ft | 452 kts | 286° |
| 2026-05-04 17:40 | 47.23459 | 27.68991 | 22276 ft | 455 kts | 286° |
| 2026-05-04 17:40 | 47.24462 | 27.64547 | 22602 ft | 459 kts | 286° |
| 2026-05-04 17:40 | 47.25468 | 27.60081 | 22907 ft | 462 kts | 287° |
| 2026-05-04 17:41 | 47.26482 | 27.55559 | 23216 ft | 466 kts | 287° |
| 2026-05-04 17:41 | 47.27510 | 27.50960 | 23516 ft | 469 kts | 287° |
| 2026-05-04 17:41 | 47.28528 | 27.46389 | 23829 ft | 472 kts | 287° |
| 2026-05-04 17:41 | 47.29553 | 27.41778 | 24122 ft | 475 kts | 288° |
| 2026-05-04 17:42 | 47.30583 | 27.37139 | 24427 ft | 477 kts | 288° |
| 2026-05-04 17:42 | 47.31616 | 27.32485 | 24737 ft | 480 kts | 289° |
| 2026-05-04 17:42 | 47.32657 | 27.27799 | 25048 ft | 482 kts | 289° |
| 2026-05-04 17:42 | 47.33711 | 27.23038 | 25369 ft | 484 kts | 289° |
| 2026-05-04 17:43 | 47.34755 | 27.18311 | 25682 ft | 485 kts | 289° |
| 2026-05-04 17:43 | 47.35796 | 27.13562 | 25996 ft | 487 kts | 290° |
| 2026-05-04 17:43 | 47.36834 | 27.08806 | 26300 ft | 488 kts | 290° |
| 2026-05-04 17:43 | 47.37875 | 27.04028 | 26617 ft | 489 kts | 290° |
| 2026-05-04 17:44 | 47.38916 | 26.99252 | 26910 ft | 490 kts | 290° |
| 2026-05-04 17:44 | 47.39961 | 26.94458 | 27202 ft | 491 kts | 291° |
| 2026-05-04 17:44 | 47.41007 | 26.89652 | 27535 ft | 492 kts | 291° |
| 2026-05-04 17:44 | 47.42050 | 26.84848 | 27787 ft | 494 kts | 291° |
| 2026-05-04 17:45 | 47.43116 | 26.79936 | 28077 ft | 495 kts | 291° |
| 2026-05-04 17:45 | 47.44177 | 26.75018 | 28344 ft | 497 kts | 291° |
| 2026-05-04 17:45 | 47.45237 | 26.70086 | 28662 ft | 497 kts | 291° |
| 2026-05-04 17:45 | 47.46280 | 26.65214 | 29062 ft | 494 kts | 291° |
| 2026-05-04 17:46 | 47.47319 | 26.60352 | 29551 ft | 488 kts | 292° |
| 2026-05-04 17:46 | 47.48331 | 26.55602 | 30074 ft | 483 kts | 292° |
| 2026-05-04 17:46 | 47.49350 | 26.50815 | 30469 ft | 480 kts | 292° |
| 2026-05-04 17:46 | 47.50349 | 26.46114 | 30803 ft | 479 kts | 292° |
| 2026-05-04 17:47 | 47.51360 | 26.41342 | 31103 ft | 479 kts | 292° |
| 2026-05-04 17:47 | 47.52018 | 26.38236 | 31297 ft | 479 kts | 292° |
| 2026-05-04 17:47 | 47.53027 | 26.33474 | 31599 ft | 478 kts | 292° |
| 2026-05-04 17:47 | 47.54032 | 26.28715 | 31893 ft | 478 kts | 291° |
| 2026-05-04 17:48 | 47.54707 | 26.23889 | 32151 ft | 485 kts | 277° |
| 2026-05-04 17:48 | 47.54592 | 26.18874 | 32394 ft | 490 kts | 268° |
| 2026-05-04 17:48 | 47.54246 | 26.13865 | 32635 ft | 490 kts | 268° |
| 2026-05-04 17:48 | 47.54206 | 26.08862 | 32861 ft | 483 kts | 281° |
| 2026-05-04 17:49 | 47.54933 | 26.04079 | 33087 ft | 475 kts | 292° |
| 2026-05-04 17:49 | 47.55946 | 25.99421 | 33297 ft | 475 kts | 292° |
| 2026-05-04 17:49 | 47.56965 | 25.94761 | 33531 ft | 475 kts | 292° |
| 2026-05-04 17:49 | 47.57983 | 25.90113 | 33742 ft | 475 kts | 292° |
| 2026-05-04 17:50 | 47.58732 | 25.85320 | 33969 ft | 482 kts | 280° |
| 2026-05-04 17:50 | 47.59047 | 25.80314 | 34181 ft | 483 kts | 279° |
| 2026-05-04 17:50 | 47.59340 | 25.75418 | 34396 ft | 483 kts | 279° |
| 2026-05-04 17:50 | 47.59637 | 25.70396 | 34638 ft | 482 kts | 279° |
| 2026-05-04 17:51 | 47.59927 | 25.65453 | 34832 ft | 482 kts | 279° |
| 2026-05-04 17:51 | 47.60214 | 25.60515 | 35063 ft | 481 kts | 279° |
| 2026-05-04 17:51 | 47.60499 | 25.55569 | 35265 ft | 481 kts | 279° |
| 2026-05-04 17:51 | 47.60780 | 25.50630 | 35460 ft | 482 kts | 279° |
| 2026-05-04 17:52 | 47.61060 | 25.45675 | 35613 ft | 482 kts | 279° |
| 2026-05-04 17:52 | 47.61339 | 25.40716 | 35735 ft | 483 kts | 279° |
| 2026-05-04 17:52 | 47.61897 | 25.30803 | 35757 ft | 483 kts | 279° |
| 2026-05-04 17:53 | 47.62455 | 25.20812 | 35758 ft | 483 kts | 278° |
| 2026-05-04 17:53 | 47.62992 | 25.10876 | 35755 ft | 483 kts | 278° |
| 2026-05-04 17:54 | 47.63520 | 25.00928 | 35756 ft | 484 kts | 278° |
| 2026-05-04 17:54 | 47.64051 | 24.90902 | 35755 ft | 485 kts | 278° |
| 2026-05-04 17:55 | 47.64564 | 24.80916 | 35748 ft | 486 kts | 278° |
| 2026-05-04 17:55 | 47.65069 | 24.70915 | 35770 ft | 486 kts | 278° |
| 2026-05-04 17:56 | 47.65566 | 24.60917 | 35785 ft | 486 kts | 278° |
| 2026-05-04 17:56 | 47.66054 | 24.50941 | 35784 ft | 484 kts | 278° |
| 2026-05-04 17:57 | 47.66543 | 24.40922 | 35779 ft | 484 kts | 278° |
| 2026-05-04 17:57 | 47.67008 | 24.31024 | 35779 ft | 483 kts | 278° |
| 2026-05-04 17:58 | 47.67465 | 24.21015 | 35781 ft | 483 kts | 278° |
| 2026-05-04 17:58 | 47.67916 | 24.11080 | 35780 ft | 483 kts | 278° |
| 2026-05-04 17:59 | 47.68364 | 24.01145 | 35770 ft | 483 kts | 278° |
| 2026-05-04 18:00 | 47.69011 | 23.86202 | 35771 ft | 484 kts | 277° |
| 2026-05-04 18:00 | 47.69435 | 23.76228 | 35767 ft | 484 kts | 277° |
| 2026-05-04 18:01 | 47.69850 | 23.66181 | 35784 ft | 484 kts | 277° |
| 2026-05-04 18:01 | 47.70263 | 23.56130 | 35782 ft | 484 kts | 277° |
| 2026-05-04 18:02 | 47.70866 | 23.40999 | 35779 ft | 482 kts | 277° |
| 2026-05-04 18:02 | 47.71248 | 23.30931 | 35787 ft | 482 kts | 277° |
| 2026-05-04 18:03 | 47.71616 | 23.21010 | 35780 ft | 481 kts | 277° |
| 2026-05-04 18:03 | 47.71984 | 23.10970 | 35778 ft | 480 kts | 277° |
| 2026-05-04 18:04 | 47.72290 | 23.02670 | 35779 ft | 480 kts | 277° |
| 2026-05-04 18:05 | 47.72958 | 22.87722 | 35766 ft | 474 kts | 287° |
| 2026-05-04 18:05 | 47.73950 | 22.83114 | 35769 ft | 464 kts | 301° |
| 2026-05-04 18:05 | 47.75632 | 22.79120 | 35763 ft | 452 kts | 316° |
| 2026-05-04 18:06 | 47.82378 | 22.69535 | 35760 ft | 445 kts | 327° |
| 2026-05-04 18:06 | 47.87357 | 22.64132 | 35757 ft | 443 kts | 329° |
| 2026-05-04 18:07 | 47.92365 | 22.58763 | 35764 ft | 444 kts | 329° |
| 2026-05-04 18:07 | 47.97372 | 22.53366 | 35764 ft | 444 kts | 329° |
| 2026-05-04 18:08 | 48.02378 | 22.47947 | 35769 ft | 445 kts | 329° |
| 2026-05-04 18:08 | 48.07414 | 22.42472 | 35773 ft | 445 kts | 329° |
| 2026-05-04 18:09 | 48.17435 | 22.31584 | 35769 ft | 445 kts | 329° |
| 2026-05-04 18:10 | 48.22438 | 22.26121 | 35781 ft | 445 kts | 328° |
| 2026-05-04 18:10 | 48.27445 | 22.20622 | 35770 ft | 445 kts | 329° |
| 2026-05-04 18:11 | 48.32468 | 22.15117 | 35773 ft | 445 kts | 329° |
| 2026-05-04 18:11 | 48.37469 | 22.09632 | 35771 ft | 445 kts | 329° |
| 2026-05-04 18:12 | 48.42464 | 22.04129 | 35780 ft | 445 kts | 328° |
| 2026-05-04 18:12 | 48.47452 | 21.98601 | 35769 ft | 445 kts | 328° |
| 2026-05-04 18:13 | 48.52439 | 21.93063 | 35780 ft | 445 kts | 328° |
| 2026-05-04 18:14 | 48.59953 | 21.84705 | 35782 ft | 445 kts | 328° |
| 2026-05-04 18:14 | 48.64969 | 21.79108 | 35771 ft | 445 kts | 328° |
| 2026-05-04 18:15 | 48.74934 | 21.67950 | 35768 ft | 445 kts | 328° |
| 2026-05-04 18:16 | 48.79911 | 21.62355 | 35771 ft | 446 kts | 328° |
| 2026-05-04 18:16 | 48.84926 | 21.56711 | 35768 ft | 446 kts | 328° |
| 2026-05-04 18:17 | 48.92404 | 21.48258 | 35765 ft | 447 kts | 328° |
| 2026-05-04 18:18 | 48.99919 | 21.39720 | 35755 ft | 448 kts | 328° |
| 2026-05-04 18:18 | 49.04918 | 21.34025 | 35769 ft | 449 kts | 328° |
| 2026-05-04 18:19 | 49.12407 | 21.25463 | 35773 ft | 448 kts | 328° |
| 2026-05-04 18:19 | 49.17428 | 21.19724 | 35767 ft | 448 kts | 328° |
| 2026-05-04 18:20 | 49.22418 | 21.13998 | 35760 ft | 449 kts | 328° |
| 2026-05-04 18:20 | 49.27413 | 21.08242 | 35770 ft | 449 kts | 328° |
| 2026-05-04 18:21 | 49.32502 | 21.02361 | 35768 ft | 449 kts | 328° |
| 2026-05-04 18:21 | 49.37767 | 20.97356 | 35770 ft | 444 kts | 335° |
| 2026-05-04 18:22 | 49.43092 | 20.92519 | 35770 ft | 445 kts | 333° |
| 2026-05-04 18:22 | 49.48364 | 20.87524 | 35765 ft | 446 kts | 333° |
| 2026-05-04 18:23 | 49.52748 | 20.83344 | 35781 ft | 446 kts | 333° |
| 2026-05-04 18:23 | 49.58903 | 20.77520 | 35783 ft | 446 kts | 333° |
| 2026-05-04 18:24 | 49.63316 | 20.73350 | 35782 ft | 445 kts | 333° |
| 2026-05-04 18:24 | 49.68587 | 20.68350 | 35781 ft | 445 kts | 333° |
| 2026-05-04 18:25 | 49.73846 | 20.63327 | 35783 ft | 444 kts | 333° |
| 2026-05-04 18:25 | 49.79105 | 20.58310 | 35772 ft | 444 kts | 333° |
| 2026-05-04 18:26 | 49.84358 | 20.53285 | 35771 ft | 444 kts | 333° |
| 2026-05-04 18:26 | 49.89624 | 20.48225 | 35773 ft | 444 kts | 333° |
| 2026-05-04 18:27 | 49.94859 | 20.43188 | 35783 ft | 444 kts | 333° |
| 2026-05-04 18:27 | 50.00172 | 20.38071 | 35771 ft | 444 kts | 333° |
| 2026-05-04 18:28 | 50.05404 | 20.33023 | 35779 ft | 443 kts | 333° |
| 2026-05-04 18:28 | 50.10663 | 20.27923 | 35770 ft | 443 kts | 333° |
| 2026-05-04 18:29 | 50.15877 | 20.22850 | 35773 ft | 443 kts | 333° |
| 2026-05-04 18:29 | 50.21134 | 20.17733 | 35780 ft | 443 kts | 333° |
| 2026-05-04 18:30 | 50.28989 | 20.10046 | 35772 ft | 443 kts | 333° |
| 2026-05-04 18:31 | 50.34277 | 20.04851 | 35767 ft | 443 kts | 333° |
| 2026-05-04 18:31 | 50.39361 | 19.99855 | 35769 ft | 443 kts | 333° |
| 2026-05-04 18:32 | 50.44606 | 19.94693 | 35771 ft | 443 kts | 333° |
| 2026-05-04 18:32 | 50.49927 | 19.89451 | 35780 ft | 444 kts | 332° |
| 2026-05-04 18:33 | 50.55062 | 19.84338 | 35780 ft | 444 kts | 332° |
| 2026-05-04 18:33 | 50.60280 | 19.79143 | 35771 ft | 444 kts | 332° |
| 2026-05-04 18:34 | 50.65541 | 19.73903 | 35779 ft | 443 kts | 332° |
| 2026-05-04 18:34 | 50.70774 | 19.68672 | 35769 ft | 443 kts | 332° |
| 2026-05-04 18:35 | 50.75983 | 19.63450 | 35772 ft | 443 kts | 332° |
| 2026-05-04 18:35 | 50.81188 | 19.58227 | 35779 ft | 443 kts | 332° |
| 2026-05-04 18:36 | 50.86380 | 19.52990 | 35785 ft | 443 kts | 332° |
| 2026-05-04 18:36 | 50.91577 | 19.47736 | 35768 ft | 443 kts | 332° |
| 2026-05-04 18:37 | 50.96777 | 19.42484 | 35773 ft | 443 kts | 332° |
| 2026-05-04 18:37 | 51.01970 | 19.37211 | 35772 ft | 443 kts | 332° |
| 2026-05-04 18:38 | 51.07159 | 19.31923 | 35772 ft | 443 kts | 332° |
| 2026-05-04 18:38 | 51.12345 | 19.26625 | 35772 ft | 443 kts | 332° |
| 2026-05-04 18:39 | 51.18811 | 19.20016 | 35782 ft | 443 kts | 332° |
| 2026-05-04 18:39 | 51.27113 | 19.11489 | 35772 ft | 443 kts | 332° |
| 2026-05-04 18:40 | 51.32286 | 19.06139 | 35772 ft | 443 kts | 332° |
| 2026-05-04 18:40 | 51.37534 | 19.00711 | 35771 ft | 443 kts | 332° |
| 2026-05-04 18:41 | 51.42741 | 18.95315 | 35774 ft | 443 kts | 332° |
| 2026-05-04 18:41 | 51.47942 | 18.89899 | 35769 ft | 443 kts | 332° |
| 2026-05-04 18:42 | 51.53140 | 18.84472 | 35773 ft | 443 kts | 332° |
| 2026-05-04 18:42 | 51.58334 | 18.79034 | 35770 ft | 443 kts | 332° |
| 2026-05-04 18:43 | 51.63497 | 18.73614 | 35773 ft | 443 kts | 332° |
| 2026-05-04 18:43 | 51.67858 | 18.69029 | 35774 ft | 443 kts | 332° |
| 2026-05-04 18:44 | 51.73014 | 18.63603 | 35771 ft | 443 kts | 332° |
| 2026-05-04 18:44 | 51.78204 | 18.58131 | 35771 ft | 443 kts | 332° |
| 2026-05-04 18:45 | 51.83395 | 18.52618 | 35767 ft | 443 kts | 332° |
| 2026-05-04 18:45 | 51.88534 | 18.47148 | 35773 ft | 443 kts | 331° |
| 2026-05-04 18:46 | 51.93678 | 18.41664 | 35773 ft | 443 kts | 332° |
| 2026-05-04 18:46 | 51.98858 | 18.36133 | 35769 ft | 443 kts | 331° |
| 2026-05-04 18:47 | 52.04010 | 18.30607 | 35771 ft | 443 kts | 331° |
| 2026-05-04 18:47 | 52.09207 | 18.25023 | 35773 ft | 443 kts | 331° |
| 2026-05-04 18:48 | 52.14378 | 18.19440 | 35785 ft | 443 kts | 331° |
| 2026-05-04 18:48 | 52.19579 | 18.13818 | 35778 ft | 443 kts | 331° |
| 2026-05-04 18:49 | 52.24742 | 18.08217 | 35770 ft | 443 kts | 331° |
| 2026-05-04 18:49 | 52.29873 | 18.02632 | 35771 ft | 443 kts | 331° |
| 2026-05-04 18:50 | 52.34998 | 17.97047 | 35767 ft | 443 kts | 331° |
| 2026-05-04 18:50 | 52.40153 | 17.91403 | 35768 ft | 443 kts | 331° |
| 2026-05-04 18:51 | 52.45277 | 17.85779 | 35771 ft | 443 kts | 331° |
| 2026-05-04 18:51 | 52.50395 | 17.80151 | 35769 ft | 443 kts | 331° |
| 2026-05-04 18:52 | 52.55505 | 17.74514 | 35772 ft | 443 kts | 331° |
| 2026-05-04 18:52 | 52.60611 | 17.68875 | 35768 ft | 443 kts | 331° |
| 2026-05-04 18:53 | 52.65722 | 17.63204 | 35772 ft | 443 kts | 330° |
| 2026-05-04 18:53 | 52.70835 | 17.57508 | 35772 ft | 443 kts | 330° |
| 2026-05-04 18:54 | 52.75975 | 17.51769 | 35772 ft | 443 kts | 330° |
| 2026-05-04 18:54 | 52.81079 | 17.46059 | 35769 ft | 443 kts | 330° |
| 2026-05-04 18:55 | 52.86181 | 17.40337 | 35773 ft | 443 kts | 330° |
| 2026-05-04 18:55 | 52.93830 | 17.31716 | 35771 ft | 443 kts | 330° |
| 2026-05-04 18:56 | 52.98925 | 17.25955 | 35774 ft | 443 kts | 330° |
| 2026-05-04 18:56 | 53.04052 | 17.20147 | 35769 ft | 443 kts | 330° |
| 2026-05-04 18:57 | 53.09181 | 17.14334 | 35774 ft | 443 kts | 330° |
| 2026-05-04 18:57 | 53.14301 | 17.08495 | 35772 ft | 443 kts | 330° |
| 2026-05-04 18:58 | 53.18593 | 17.03579 | 35771 ft | 443 kts | 330° |
| 2026-05-04 18:58 | 53.23714 | 16.97706 | 35770 ft | 443 kts | 330° |
| 2026-05-04 18:59 | 53.28792 | 16.91859 | 35770 ft | 443 kts | 330° |
| 2026-05-04 18:59 | 53.33901 | 16.85955 | 35770 ft | 443 kts | 330° |
| 2026-05-04 19:00 | 53.39045 | 16.80006 | 35773 ft | 444 kts | 330° |
| 2026-05-04 19:00 | 53.44155 | 16.74085 | 35771 ft | 444 kts | 330° |
| 2026-05-04 19:01 | 53.49265 | 16.68155 | 35770 ft | 444 kts | 330° |
| 2026-05-04 19:01 | 53.54375 | 16.62195 | 35773 ft | 444 kts | 330° |
| 2026-05-04 19:02 | 53.59477 | 16.56219 | 35767 ft | 444 kts | 330° |
| 2026-05-04 19:02 | 53.64542 | 16.50265 | 35771 ft | 444 kts | 330° |
| 2026-05-04 19:03 | 53.69606 | 16.44298 | 35769 ft | 444 kts | 330° |
| 2026-05-04 19:03 | 53.74706 | 16.38269 | 35776 ft | 444 kts | 330° |
| 2026-05-04 19:04 | 53.79767 | 16.32274 | 35771 ft | 444 kts | 330° |
| 2026-05-04 19:04 | 53.84822 | 16.26262 | 35781 ft | 444 kts | 329° |
| 2026-05-04 19:05 | 53.89873 | 16.20237 | 35771 ft | 444 kts | 330° |
| 2026-05-04 19:05 | 53.94921 | 16.14206 | 35780 ft | 444 kts | 329° |
| 2026-05-04 19:06 | 53.99965 | 16.08159 | 35772 ft | 444 kts | 329° |
| 2026-05-04 19:06 | 54.05005 | 16.02095 | 35780 ft | 444 kts | 329° |
| 2026-05-04 19:07 | 54.10041 | 15.96016 | 35767 ft | 444 kts | 329° |
| 2026-05-04 19:07 | 54.15075 | 15.89925 | 35771 ft | 444 kts | 329° |
| 2026-05-04 19:08 | 54.20107 | 15.83825 | 35780 ft | 444 kts | 329° |
| 2026-05-04 19:08 | 54.25142 | 15.77703 | 35771 ft | 444 kts | 329° |
| 2026-05-04 19:09 | 54.30163 | 15.71562 | 35770 ft | 444 kts | 329° |
| 2026-05-04 19:09 | 54.35179 | 15.65415 | 35684 ft | 442 kts | 329° |
| 2026-05-04 19:10 | 54.37675 | 15.62353 | 35124 ft | 442 kts | 329° |
| 2026-05-04 19:10 | 54.40177 | 15.59278 | 34500 ft | 442 kts | 329° |
| 2026-05-04 19:10 | 54.42683 | 15.56190 | 33855 ft | 444 kts | 329° |
| 2026-05-04 19:10 | 54.45223 | 15.53055 | 33188 ft | 445 kts | 329° |
| 2026-05-04 19:11 | 54.47743 | 15.49944 | 32514 ft | 446 kts | 329° |
| 2026-05-04 19:11 | 54.50264 | 15.46828 | 31823 ft | 448 kts | 329° |
| 2026-05-04 19:11 | 54.52797 | 15.43688 | 31120 ft | 449 kts | 329° |
| 2026-05-04 19:11 | 54.55334 | 15.40540 | 30504 ft | 448 kts | 329° |
| 2026-05-04 19:12 | 54.57847 | 15.37418 | 29999 ft | 444 kts | 329° |
| 2026-05-04 19:12 | 54.62809 | 15.31229 | 28946 ft | 436 kts | 329° |
| 2026-05-04 19:12 | 54.65259 | 15.28163 | 28410 ft | 433 kts | 329° |
| 2026-05-04 19:13 | 54.67714 | 15.25084 | 27845 ft | 430 kts | 329° |
| 2026-05-04 19:13 | 54.70134 | 15.22051 | 27204 ft | 429 kts | 329° |
| 2026-05-04 19:13 | 54.72553 | 15.19022 | 26507 ft | 431 kts | 329° |
| 2026-05-04 19:13 | 54.74986 | 15.15972 | 25789 ft | 433 kts | 329° |
| 2026-05-04 19:14 | 54.77431 | 15.12903 | 25081 ft | 435 kts | 328° |
| 2026-05-04 19:14 | 54.79879 | 15.09820 | 24399 ft | 436 kts | 327° |
| 2026-05-04 19:14 | 54.82337 | 15.06717 | 23757 ft | 437 kts | 327° |
| 2026-05-04 19:14 | 54.84792 | 15.03613 | 23155 ft | 437 kts | 326° |
| 2026-05-04 19:15 | 54.87250 | 15.00502 | 22607 ft | 436 kts | 325° |
| 2026-05-04 19:15 | 54.89694 | 14.97403 | 22097 ft | 435 kts | 324° |
| 2026-05-04 19:15 | 54.92131 | 14.94308 | 21627 ft | 432 kts | 324° |
| 2026-05-04 19:15 | 54.94553 | 14.91224 | 21161 ft | 430 kts | 323° |
| 2026-05-04 19:16 | 54.96950 | 14.88164 | 20728 ft | 426 kts | 323° |
| 2026-05-04 19:16 | 54.99332 | 14.85117 | 20302 ft | 423 kts | 322° |
| 2026-05-04 19:16 | 55.01689 | 14.82104 | 19863 ft | 419 kts | 322° |
| 2026-05-04 19:16 | 55.04022 | 14.79102 | 19440 ft | 414 kts | 319° |
| 2026-05-04 19:17 | 55.06097 | 14.75700 | 19024 ft | 405 kts | 308° |
| 2026-05-04 19:17 | 55.07742 | 14.71793 | 18626 ft | 395 kts | 296° |
| 2026-05-04 19:17 | 55.08614 | 14.68959 | 18340 ft | 390 kts | 292° |
| 2026-05-04 19:17 | 55.09851 | 14.64716 | 17943 ft | 385 kts | 292° |
| 2026-05-04 19:18 | 55.11080 | 14.60515 | 17517 ft | 380 kts | 293° |
| 2026-05-04 19:18 | 55.12273 | 14.56444 | 17106 ft | 374 kts | 293° |
| 2026-05-04 19:18 | 55.13464 | 14.52375 | 16685 ft | 369 kts | 293° |
| 2026-05-04 19:18 | 55.14625 | 14.48407 | 16258 ft | 364 kts | 293° |
| 2026-05-04 19:19 | 55.15770 | 14.44492 | 15838 ft | 359 kts | 293° |
| 2026-05-04 19:19 | 55.16895 | 14.40637 | 15414 ft | 354 kts | 293° |
| 2026-05-04 19:19 | 55.18003 | 14.36819 | 14976 ft | 349 kts | 294° |
| 2026-05-04 19:19 | 55.19091 | 14.33055 | 14535 ft | 345 kts | 294° |
| 2026-05-04 19:20 | 55.20167 | 14.29328 | 14073 ft | 341 kts | 294° |
| 2026-05-04 19:20 | 55.21230 | 14.25653 | 13622 ft | 337 kts | 295° |
| 2026-05-04 19:20 | 55.22284 | 14.22010 | 13154 ft | 333 kts | 295° |
| 2026-05-04 19:20 | 55.23323 | 14.18412 | 12685 ft | 330 kts | 295° |
| 2026-05-04 19:21 | 55.24352 | 14.14837 | 12199 ft | 327 kts | 296° |
| 2026-05-04 19:21 | 55.25351 | 14.11216 | 11696 ft | 324 kts | 295° |
| 2026-05-04 19:21 | 55.26279 | 14.07627 | 11215 ft | 322 kts | 294° |
| 2026-05-04 19:21 | 55.27172 | 14.04047 | 10718 ft | 320 kts | 294° |
| 2026-05-04 19:22 | 55.28051 | 14.00478 | 10213 ft | 318 kts | 294° |
| 2026-05-04 19:22 | 55.28926 | 13.96914 | 9734 ft | 316 kts | 295° |
| 2026-05-04 19:22 | 55.29779 | 13.93447 | 9591 ft | 303 kts | 295° |
| 2026-05-04 19:22 | 55.30613 | 13.90070 | 9469 ft | 291 kts | 295° |
| 2026-05-04 19:23 | 55.31409 | 13.86872 | 9339 ft | 280 kts | 295° |
| 2026-05-04 19:23 | 55.32180 | 13.83784 | 9095 ft | 274 kts | 296° |
| 2026-05-04 19:23 | 55.32942 | 13.80725 | 8747 ft | 273 kts | 296° |
| 2026-05-04 19:23 | 55.33699 | 13.77683 | 8372 ft | 272 kts | 296° |
| 2026-05-04 19:24 | 55.34461 | 13.74619 | 7990 ft | 272 kts | 296° |
| 2026-05-04 19:24 | 55.35213 | 13.71593 | 7612 ft | 272 kts | 296° |
| 2026-05-04 19:24 | 55.35977 | 13.68515 | 7247 ft | 271 kts | 296° |
| 2026-05-04 19:24 | 55.36726 | 13.65484 | 6898 ft | 269 kts | 296° |
| 2026-05-04 19:25 | 55.37470 | 13.62466 | 6550 ft | 268 kts | 296° |
| 2026-05-04 19:25 | 55.38224 | 13.59411 | 5847 ft | 280 kts | 295° |
| 2026-05-04 19:25 | 55.39007 | 13.56230 | 5311 ft | 284 kts | 295° |
| 2026-05-04 19:25 | 55.39789 | 13.53044 | 4922 ft | 283 kts | 295° |
| 2026-05-04 19:26 | 55.40562 | 13.49881 | 4821 ft | 282 kts | 295° |
| 2026-05-04 19:26 | 55.41351 | 13.46663 | 4810 ft | 284 kts | 295° |
| 2026-05-04 19:26 | 55.42137 | 13.43422 | 4811 ft | 284 kts | 294° |
| 2026-05-04 19:26 | 55.42889 | 13.40207 | 4811 ft | 284 kts | 294° |
| 2026-05-04 19:27 | 55.43629 | 13.36973 | 4821 ft | 284 kts | 294° |
| 2026-05-04 19:27 | 55.44361 | 13.33740 | 4809 ft | 284 kts | 294° |
| 2026-05-04 19:27 | 55.45077 | 13.30568 | 4803 ft | 271 kts | 294° |
| 2026-05-04 19:27 | 55.45761 | 13.27539 | 4817 ft | 264 kts | 294° |
| 2026-05-04 19:28 | 55.46448 | 13.24504 | 4812 ft | 263 kts | 294° |
| 2026-05-04 19:28 | 55.47124 | 13.21533 | 4685 ft | 262 kts | 294° |
| 2026-05-04 19:28 | 55.47801 | 13.18549 | 4342 ft | 260 kts | 294° |
| 2026-05-04 19:28 | 55.48473 | 13.15591 | 3990 ft | 259 kts | 294° |
| 2026-05-04 19:29 | 55.49135 | 13.12665 | 3792 ft | 256 kts | 293° |
| 2026-05-04 19:29 | 55.49886 | 13.09810 | 3791 ft | 257 kts | 306° |
| 2026-05-04 19:29 | 55.51137 | 13.07511 | 3787 ft | 256 kts | 319° |
| 2026-05-04 19:29 | 55.52455 | 13.05396 | 3788 ft | 257 kts | 318° |
| 2026-05-04 19:30 | 55.53769 | 13.03259 | 3788 ft | 256 kts | 318° |
| 2026-05-04 19:30 | 55.55097 | 13.01087 | 3791 ft | 256 kts | 318° |
| 2026-05-04 19:30 | 55.56399 | 12.98952 | 3789 ft | 257 kts | 318° |
| 2026-05-04 19:30 | 55.57706 | 12.96812 | 3788 ft | 257 kts | 318° |
| 2026-05-04 19:31 | 55.59062 | 12.94603 | 3788 ft | 256 kts | 318° |
| 2026-05-04 19:31 | 55.60302 | 12.92594 | 3785 ft | 244 kts | 320° |
| 2026-05-04 19:31 | 55.61721 | 12.91170 | 3784 ft | 228 kts | 344° |
| 2026-05-04 19:31 | 55.63274 | 12.90927 | 3782 ft | 225 kts | 7° |
| 2026-05-04 19:32 | 55.64752 | 12.91837 | 3786 ft | 228 kts | 31° |
| 2026-05-04 19:32 | 55.65978 | 12.93616 | 3640 ft | 228 kts | 39° |
| 2026-05-04 19:32 | 55.67162 | 12.95479 | 3332 ft | 226 kts | 39° |
| 2026-05-04 19:32 | 55.68335 | 12.97321 | 2926 ft | 225 kts | 38° |
| 2026-05-04 19:33 | 55.69680 | 12.98614 | 2790 ft | 221 kts | 14° |
| 2026-05-04 19:33 | 55.71159 | 12.99426 | 2786 ft | 224 kts | 22° |
| 2026-05-04 19:33 | 55.72567 | 13.00632 | 2788 ft | 225 kts | 25° |
| 2026-05-04 19:33 | 55.73957 | 13.01902 | 2789 ft | 225 kts | 25° |
| 2026-05-04 19:34 | 55.75416 | 13.02831 | 2781 ft | 222 kts | 3° |
| 2026-05-04 19:34 | 55.76905 | 13.02291 | 2785 ft | 221 kts | 330° |
| 2026-05-04 19:34 | 55.77971 | 13.00328 | 2798 ft | 222 kts | 297° |
| 2026-05-04 19:34 | 55.78247 | 12.97689 | 2813 ft | 212 kts | 270° |
| 2026-05-04 19:35 | 55.78116 | 12.95203 | 2787 ft | 195 kts | 266° |
| 2026-05-04 19:35 | 55.77948 | 12.92851 | 2784 ft | 190 kts | 265° |
| 2026-05-04 19:35 | 55.77553 | 12.90590 | 2787 ft | 192 kts | 244° |
| 2026-05-04 19:35 | 55.77000 | 12.89303 | 2787 ft | 194 kts | 227° |
| 2026-05-04 19:36 | 55.75990 | 12.87714 | 2786 ft | 194 kts | 224° |
| 2026-05-04 19:36 | 55.74975 | 12.86130 | 2780 ft | 184 kts | 224° |
| 2026-05-04 19:36 | 55.74040 | 12.84669 | 2816 ft | 176 kts | 224° |
| 2026-05-04 19:36 | 55.73126 | 12.83239 | 2729 ft | 174 kts | 224° |
| 2026-05-04 19:37 | 55.72221 | 12.81826 | 2512 ft | 173 kts | 224° |
| 2026-05-04 19:37 | 55.71321 | 12.80421 | 2305 ft | 172 kts | 224° |
| 2026-05-04 19:37 | 55.70428 | 12.79027 | 2072 ft | 171 kts | 224° |
| 2026-05-04 19:37 | 55.69525 | 12.77619 | 1846 ft | 170 kts | 224° |
| 2026-05-04 19:38 | 55.68640 | 12.76241 | 1621 ft | 169 kts | 224° |
| 2026-05-04 19:38 | 55.67744 | 12.74846 | 1404 ft | 169 kts | 224° |
| 2026-05-04 19:38 | 55.66875 | 12.73494 | 1170 ft | 168 kts | 224° |
| 2026-05-04 19:38 | 55.65989 | 12.72116 | 947 ft | 167 kts | 224° |
| 2026-05-04 19:39 | 55.65116 | 12.70760 | 726 ft | 166 kts | 224° |
| 2026-05-04 19:39 | 55.64248 | 12.69412 | 505 ft | 165 kts | 224° |
| 2026-05-04 19:39 | 55.63388 | 12.68077 | 288 ft | 165 kts | 223° |
| 2026-05-04 19:39 | 55.62540 | 12.66728 | 59 ft | 160 kts | 227° |
| 2026-05-04 19:40 | 55.61576 | 12.65635 | 117 ft | 157 kts | 211° |